Euphony Ace — 3EDG6 — position and weather

sailwx.info

Track history (hours):
 
Tides and Currents Weather Stations Pressure Air Temp Water Temp Dewpoint Dewpoint Depression Visibility Wind Speed Wind Dir Waves Ship Positions

Euphony Ace

Last reported at 2018-Jul-10 22:23 UTC. Time now 2018-Jul-17 05:54 UTC.
Position N 01°29' E 103°10'.

Length 200 m; beam 32.2 m.

Type: Cargo ship. MMSI: 371618000.

Date/timePositionNaut miles runAvg speedWind from/ knotsBaromVisibWave heightAir tempDewpointWater temp
2018-Jul-10 22:23N 01°29' E 103°10'614.2
2018-Jul-10 21:59N 01°25' E 103°14'611.8
2018-Jul-10 21:29N 01°21' E 103°18'918.4
2018-Jul-10 20:59N 01°14' E 103°25'815.8
2018-Jul-10 20:30N 01°12' E 103°32'713.0
2018-Jul-10 19:59N 01°11' E 103°39'612.8
2018-Jul-10 19:30N 01°08' E 103°45'4 8.4
2018-Jul-10 19:00N 01°10' E 103°48'4 7.9
2018-Jul-10 18:30N 01°12' E 103°52'3 6.6
2018-Jul-10 18:00N 01°15' E 103°51'1 1.0
2018-Jul-10 17:24N 01°16' E 103°51'0 0.0
2018-Jul-10 16:59N 01°16' E 103°51'0 0.0
2018-Jul-10 16:29N 01°16' E 103°51'0 0.0
2018-Jul-10 15:59N 01°16' E 103°51'0 0.0
2018-Jul-10 15:29N 01°16' E 103°51'0 0.0
2018-Jul-10 15:00N 01°16' E 103°51'0 0.0
2018-Jul-10 14:27N 01°16' E 103°51'0 0.0
2018-Jul-10 13:59N 01°16' E 103°51'0 0.0
2018-Jul-10 13:30N 01°16' E 103°51'0 0.0
2018-Jul-10 12:59N 01°16' E 103°51'0 0.0
2018-Jul-10 12:29N 01°16' E 103°51'0 0.0
2018-Jul-10 11:53N 01°16' E 103°51'0 0.0
2018-Jul-10 11:30N 01°16' E 103°51'0 0.0
2018-Jul-10 10:57N 01°16' E 103°51'0 0.0
2018-Jul-10 10:30N 01°16' E 103°51'0 0.0
2018-Jul-10 09:51N 01°16' E 103°51'0 0.0
2018-Jul-10 09:29N 01°16' E 103°51'0 0.0
2018-Jul-10 09:00N 01°16' E 103°51'0 0.0
2018-Jul-10 08:30N 01°16' E 103°51'0 0.8
2018-Jul-10 07:59N 01°16' E 103°51'1 1.2
2018-Jul-10 07:29N 01°15' E 103°52'0 0.1
2018-Jul-10 06:57N 01°15' E 103°52'0 0.0
2018-Jul-10 06:29N 01°15' E 103°52'0 0.0
2018-Jul-10 05:56N 01°15' E 103°52'0 0.2
2018-Jul-10 05:29N 01°15' E 103°52'0 0.0
2018-Jul-10 04:59N 01°15' E 103°52'0 0.1
2018-Jul-10 04:30N 01°15' E 103°52'0 0.0
2018-Jul-10 03:59N 01°15' E 103°52'0 0.1
2018-Jul-10 03:30N 01°15' E 103°52'0 0.1
2018-Jul-10 02:59N 01°15' E 103°52'0 0.0
2018-Jul-10 02:30N 01°15' E 103°52'0 0.0
2018-Jul-10 01:56N 01°15' E 103°52'0 0.1
2018-Jul-10 01:27N 01°15' E 103°52'0 0.1
2018-Jul-10 00:56N 01°15' E 103°52'0 0.1
2018-Jul-10 00:25N 01°15' E 103°52'0 0.7
2018-Jul-10 00:00N 01°15' E 103°52'3 6.4
2018-Jul-09 23:30N 01°12' E 103°51'5 9.3
2018-Jul-09 23:00N 01°14' E 103°47'3 6.3
2018-Jul-09 22:30N 01°17' E 103°45'0 0.2
2018-Jul-09 21:56N 01°17' E 103°45'0 0.0
2018-Jul-09 21:28N 01°17' E 103°45'0 0.0
2018-Jul-09 20:55N 01°17' E 103°45'0 0.0
2018-Jul-09 20:29N 01°17' E 103°45'0 0.0
2018-Jul-09 19:59N 01°17' E 103°45'0 0.0
2018-Jul-09 19:29N 01°17' E 103°45'0 0.0
2018-Jul-09 18:58N 01°17' E 103°45'0 0.0
2018-Jul-09 18:29N 01°17' E 103°45'0 0.0
2018-Jul-09 17:59N 01°17' E 103°45'0 0.0
2018-Jul-09 17:29N 01°17' E 103°45'0 0.0
2018-Jul-09 16:59N 01°17' E 103°45'0 0.0
2018-Jul-09 16:29N 01°17' E 103°45'0 0.0
2018-Jul-09 15:55N 01°17' E 103°45'0 0.0
2018-Jul-09 15:29N 01°17' E 103°45'0 0.0
2018-Jul-09 14:59N 01°17' E 103°45'0 0.0
2018-Jul-09 14:26N 01°17' E 103°45'0 0.0
2018-Jul-09 13:56N 01°17' E 103°45'0 0.0
2018-Jul-09 13:29N 01°17' E 103°45'0 0.0
2018-Jul-09 12:58N 01°17' E 103°45'0 0.0
2018-Jul-09 12:26N 01°17' E 103°45'0 0.0
2018-Jul-09 11:59N 01°17' E 103°45'0 0.0
2018-Jul-09 11:29N 01°17' E 103°45'0 0.0
2018-Jul-09 10:55N 01°17' E 103°45'0 0.0
2018-Jul-09 10:28N 01°17' E 103°45'0 0.0
2018-Jul-09 09:59N 01°17' E 103°45'0 0.0
2018-Jul-09 09:25N 01°17' E 103°45'0 0.0
2018-Jul-09 08:58N 01°17' E 103°45'0 0.0
2018-Jul-09 08:26N 01°17' E 103°45'0 0.0
2018-Jul-09 07:59N 01°17' E 103°45'0 0.0
2018-Jul-09 07:26N 01°17' E 103°45'0 0.0
2018-Jul-09 06:59N 01°17' E 103°45'0 0.0
2018-Jul-09 06:29N 01°17' E 103°45'0 0.0
2018-Jul-09 05:56N 01°17' E 103°45'0 0.0
2018-Jul-09 05:29N 01°17' E 103°45'0 0.0
2018-Jul-09 04:58N 01°17' E 103°45'0 0.0
2018-Jul-09 04:29N 01°17' E 103°45'0 0.0
2018-Jul-09 03:59N 01°17' E 103°45'0 0.0
2018-Jul-09 03:29N 01°17' E 103°45'0 0.0
2018-Jul-09 02:59N 01°17' E 103°45'0 0.0
2018-Jul-09 02:26N 01°17' E 103°45'0 0.0
2018-Jul-09 01:59N 01°17' E 103°45'0 0.0
2018-Jul-09 01:29N 01°17' E 103°45'0 0.0
2018-Jul-09 00:59N 01°17' E 103°45'1 1.7
2018-Jul-09 00:30N 01°17' E 103°45'5 9.3
2018-Jul-09 00:01N 01°13' E 103°48'5 9.8
2018-Jul-08 23:30N 01°13' E 103°53'1 2.7
2018-Jul-08 23:00N 01°14' E 103°54'3 6.3
2018-Jul-08 22:30N 01°15' E 103°57'4 6.9
2018-Jul-08 21:59N 01°16' E 104°00'5 9.4
2018-Jul-08 21:30N 01°16' E 104°05'510.1
2018-Jul-08 20:59N 01°16' E 104°10'510.8
2018-Jul-08 20:30N 01°17' E 104°15'511.0
2018-Jul-08 20:01N 01°19' E 104°20'611.0
2018-Jul-08 19:28N 01°23' E 104°25'511.5
2018-Jul-08 19:00N 01°27' E 104°29'1411.5
2018-Jul-08 17:49N 01°35' E 104°39'511.7
2018-Jul-08 17:25N 01°38' E 104°43'  
2018-Jul-01 10:36N 33°56' E 134°54'217.2
2018-Jul-01 10:29N 33°58' E 134°55'817.2
2018-Jul-01 10:00N 34°06' E 134°56'714.7
2018-Jul-01 09:30N 34°13' E 134°57'510.8
2018-Jul-01 09:01N 34°18' E 134°59'816.0
2018-Jul-01 08:31N 34°25' E 135°04'917.5
2018-Jul-01 08:00N 34°31' E 135°11'815.8
2018-Jul-01 07:31N 34°37' E 135°17'5 8.9
2018-Jul-01 07:00N 34°42' E 135°17'0 0.2
2018-Jul-01 06:23N 34°42' E 135°17'0 0.0
2018-Jul-01 05:53N 34°42' E 135°17'0 0.0
2018-Jul-01 05:29N 34°42' E 135°17'0 0.0
2018-Jul-01 04:59N 34°42' E 135°17'0 0.0
2018-Jul-01 04:29N 34°42' E 135°17'0 0.0
2018-Jul-01 03:59N 34°42' E 135°17'0 0.0
2018-Jul-01 03:29N 34°42' E 135°17'0 0.0
2018-Jul-01 02:59N 34°42' E 135°17'0 0.0
2018-Jul-01 02:29N 34°42' E 135°17'0 0.0
2018-Jul-01 01:59N 34°42' E 135°17'0 0.0
2018-Jul-01 01:29N 34°42' E 135°17'0 0.0
2018-Jul-01 00:59N 34°42' E 135°17'0 0.0
2018-Jul-01 00:29N 34°42' E 135°17'0 0.0
2018-Jun-30 23:59N 34°42' E 135°17'0 0.0
2018-Jun-30 23:29N 34°42' E 135°17'0 0.0
2018-Jun-30 22:53N 34°42' E 135°17'0 0.0
2018-Jun-30 22:29N 34°42' E 135°17'  
Track history (hours):
 
Tides and Currents Weather Stations Pressure Air Temp Water Temp Dewpoint Dewpoint Depression Visibility Wind Speed Wind Dir Waves Ship Positions

Euphony Ace

Last reported at 2018-Jul-10 22:23 UTC. Time now 2018-Jul-17 05:54 UTC.
Position N 01°29' E 103°10'.

Length 200 m; beam 32.2 m.

Type: Cargo ship. MMSI: 371618000.

Date/timePositionNaut miles runAvg speedWind from/ knotsBaromVisibWave heightAir tempDewpointWater temp
2018-Jul-10 22:23N 01°29' E 103°10'614.2
2018-Jul-10 21:59N 01°25' E 103°14'611.8
2018-Jul-10 21:29N 01°21' E 103°18'918.4
2018-Jul-10 20:59N 01°14' E 103°25'815.8
2018-Jul-10 20:30N 01°12' E 103°32'713.0
2018-Jul-10 19:59N 01°11' E 103°39'612.8
2018-Jul-10 19:30N 01°08' E 103°45'4 8.4
2018-Jul-10 19:00N 01°10' E 103°48'4 7.9
2018-Jul-10 18:30N 01°12' E 103°52'3 6.6
2018-Jul-10 18:00N 01°15' E 103°51'1 1.0
2018-Jul-10 17:24N 01°16' E 103°51'0 0.0
2018-Jul-10 16:59N 01°16' E 103°51'0 0.0
2018-Jul-10 16:29N 01°16' E 103°51'0 0.0
2018-Jul-10 15:59N 01°16' E 103°51'0 0.0
2018-Jul-10 15:29N 01°16' E 103°51'0 0.0
2018-Jul-10 15:00N 01°16' E 103°51'0 0.0
2018-Jul-10 14:27N 01°16' E 103°51'0 0.0
2018-Jul-10 13:59N 01°16' E 103°51'0 0.0
2018-Jul-10 13:30N 01°16' E 103°51'0 0.0
2018-Jul-10 12:59N 01°16' E 103°51'0 0.0
2018-Jul-10 12:29N 01°16' E 103°51'0 0.0
2018-Jul-10 11:53N 01°16' E 103°51'0 0.0
2018-Jul-10 11:30N 01°16' E 103°51'0 0.0
2018-Jul-10 10:57N 01°16' E 103°51'0 0.0
2018-Jul-10 10:30N 01°16' E 103°51'0 0.0
2018-Jul-10 09:51N 01°16' E 103°51'0 0.0
2018-Jul-10 09:29N 01°16' E 103°51'0 0.0
2018-Jul-10 09:00N 01°16' E 103°51'0 0.0
2018-Jul-10 08:30N 01°16' E 103°51'0 0.8
2018-Jul-10 07:59N 01°16' E 103°51'1 1.2
2018-Jul-10 07:29N 01°15' E 103°52'0 0.1
2018-Jul-10 06:57N 01°15' E 103°52'0 0.0
2018-Jul-10 06:29N 01°15' E 103°52'0 0.0
2018-Jul-10 05:56N 01°15' E 103°52'0 0.2
2018-Jul-10 05:29N 01°15' E 103°52'0 0.0
2018-Jul-10 04:59N 01°15' E 103°52'0 0.1
2018-Jul-10 04:30N 01°15' E 103°52'0 0.0
2018-Jul-10 03:59N 01°15' E 103°52'0 0.1
2018-Jul-10 03:30N 01°15' E 103°52'0 0.1
2018-Jul-10 02:59N 01°15' E 103°52'0 0.0
2018-Jul-10 02:30N 01°15' E 103°52'0 0.0
2018-Jul-10 01:56N 01°15' E 103°52'0 0.1
2018-Jul-10 01:27N 01°15' E 103°52'0 0.1
2018-Jul-10 00:56N 01°15' E 103°52'0 0.1
2018-Jul-10 00:25N 01°15' E 103°52'0 0.7
2018-Jul-10 00:00N 01°15' E 103°52'3 6.4
2018-Jul-09 23:30N 01°12' E 103°51'5 9.3
2018-Jul-09 23:00N 01°14' E 103°47'3 6.3
2018-Jul-09 22:30N 01°17' E 103°45'0 0.2
2018-Jul-09 21:56N 01°17' E 103°45'0 0.0
2018-Jul-09 21:28N 01°17' E 103°45'0 0.0
2018-Jul-09 20:55N 01°17' E 103°45'0 0.0
2018-Jul-09 20:29N 01°17' E 103°45'0 0.0
2018-Jul-09 19:59N 01°17' E 103°45'0 0.0
2018-Jul-09 19:29N 01°17' E 103°45'0 0.0
2018-Jul-09 18:58N 01°17' E 103°45'0 0.0
2018-Jul-09 18:29N 01°17' E 103°45'0 0.0
2018-Jul-09 17:59N 01°17' E 103°45'0 0.0
2018-Jul-09 17:29N 01°17' E 103°45'0 0.0
2018-Jul-09 16:59N 01°17' E 103°45'0 0.0
2018-Jul-09 16:29N 01°17' E 103°45'0 0.0
2018-Jul-09 15:55N 01°17' E 103°45'0 0.0
2018-Jul-09 15:29N 01°17' E 103°45'0 0.0
2018-Jul-09 14:59N 01°17' E 103°45'0 0.0
2018-Jul-09 14:26N 01°17' E 103°45'0 0.0
2018-Jul-09 13:56N 01°17' E 103°45'0 0.0
2018-Jul-09 13:29N 01°17' E 103°45'0 0.0
2018-Jul-09 12:58N 01°17' E 103°45'0 0.0
2018-Jul-09 12:26N 01°17' E 103°45'0 0.0
2018-Jul-09 11:59N 01°17' E 103°45'0 0.0
2018-Jul-09 11:29N 01°17' E 103°45'0 0.0
2018-Jul-09 10:55N 01°17' E 103°45'0 0.0
2018-Jul-09 10:28N 01°17' E 103°45'0 0.0
2018-Jul-09 09:59N 01°17' E 103°45'0 0.0
2018-Jul-09 09:25N 01°17' E 103°45'0 0.0
2018-Jul-09 08:58N 01°17' E 103°45'0 0.0
2018-Jul-09 08:26N 01°17' E 103°45'0 0.0
2018-Jul-09 07:59N 01°17' E 103°45'0 0.0
2018-Jul-09 07:26N 01°17' E 103°45'0 0.0
2018-Jul-09 06:59N 01°17' E 103°45'0 0.0
2018-Jul-09 06:29N 01°17' E 103°45'0 0.0
2018-Jul-09 05:56N 01°17' E 103°45'0 0.0
2018-Jul-09 05:29N 01°17' E 103°45'0 0.0
2018-Jul-09 04:58N 01°17' E 103°45'0 0.0
2018-Jul-09 04:29N 01°17' E 103°45'0 0.0
2018-Jul-09 03:59N 01°17' E 103°45'0 0.0
2018-Jul-09 03:29N 01°17' E 103°45'0 0.0
2018-Jul-09 02:59N 01°17' E 103°45'0 0.0
2018-Jul-09 02:26N 01°17' E 103°45'0 0.0
2018-Jul-09 01:59N 01°17' E 103°45'0 0.0
2018-Jul-09 01:29N 01°17' E 103°45'0 0.0
2018-Jul-09 00:59N 01°17' E 103°45'1 1.7
2018-Jul-09 00:30N 01°17' E 103°45'5 9.3
2018-Jul-09 00:01N 01°13' E 103°48'5 9.8
2018-Jul-08 23:30N 01°13' E 103°53'1 2.7
2018-Jul-08 23:00N 01°14' E 103°54'3 6.3
2018-Jul-08 22:30N 01°15' E 103°57'4 6.9
2018-Jul-08 21:59N 01°16' E 104°00'5 9.4
2018-Jul-08 21:30N 01°16' E 104°05'510.1
2018-Jul-08 20:59N 01°16' E 104°10'510.8
2018-Jul-08 20:30N 01°17' E 104°15'511.0
2018-Jul-08 20:01N 01°19' E 104°20'611.0
2018-Jul-08 19:28N 01°23' E 104°25'511.5
2018-Jul-08 19:00N 01°27' E 104°29'1411.5
2018-Jul-08 17:49N 01°35' E 104°39'511.7
2018-Jul-08 17:25N 01°38' E 104°43'  
2018-Jul-01 10:36N 33°56' E 134°54'217.2
2018-Jul-01 10:29N 33°58' E 134°55'817.2
2018-Jul-01 10:00N 34°06' E 134°56'714.7
2018-Jul-01 09:30N 34°13' E 134°57'510.8
2018-Jul-01 09:01N 34°18' E 134°59'816.0
2018-Jul-01 08:31N 34°25' E 135°04'917.5
2018-Jul-01 08:00N 34°31' E 135°11'815.8
2018-Jul-01 07:31N 34°37' E 135°17'5 8.9
2018-Jul-01 07:00N 34°42' E 135°17'0 0.2
2018-Jul-01 06:23N 34°42' E 135°17'0 0.0
2018-Jul-01 05:53N 34°42' E 135°17'0 0.0
2018-Jul-01 05:29N 34°42' E 135°17'0 0.0
2018-Jul-01 04:59N 34°42' E 135°17'0 0.0
2018-Jul-01 04:29N 34°42' E 135°17'0 0.0
2018-Jul-01 03:59N 34°42' E 135°17'0 0.0
2018-Jul-01 03:29N 34°42' E 135°17'0 0.0
2018-Jul-01 02:59N 34°42' E 135°17'0 0.0
2018-Jul-01 02:29N 34°42' E 135°17'0 0.0
2018-Jul-01 01:59N 34°42' E 135°17'0 0.0
2018-Jul-01 01:29N 34°42' E 135°17'0 0.0
2018-Jul-01 00:59N 34°42' E 135°17'0 0.0
2018-Jul-01 00:29N 34°42' E 135°17'0 0.0
2018-Jun-30 23:59N 34°42' E 135°17'0 0.0
2018-Jun-30 23:29N 34°42' E 135°17'0 0.0
2018-Jun-30 22:53N 34°42' E 135°17'0 0.0
2018-Jun-30 22:29N 34°42' E 135°17'  

Dump ship's entire track history